Time;durP1;ratioP1;P1;durP2;ratioP2;P2;SDS_P1;SDS_P2;PMS_P1;PMS_P2;Temp;Humidity;BMP_temperature;BMP_pressure;BME280_temperature;BME280_humidity;BME280_pressure;Samples;Min_cycle;Max_cycle;Signal;HPM_P1;HPM_P2
2022/10/28 00:00:46;;;;;;;10.93;5.50;;;;;;;;;;4930736;29;20042;-77
2022/10/28 00:03:12;;;;;;;9.48;4.78;;;;;;;;;;4917687;29;20035;-78
2022/10/28 00:05:37;;;;;;;9.52;5.25;;;;;;;;;;4925899;29;20038;-77
2022/10/28 00:08:02;;;;;;;10.13;5.13;;;;;;;;;;4914592;29;20027;-78
2022/10/28 00:10:28;;;;;;;11.02;5.53;;;;;;;;;;4910617;29;20055;-78
2022/10/28 00:12:53;;;;;;;7.85;5.10;;;;;;;;;;4934761;29;20042;-78
2022/10/28 00:15:18;;;;;;;9.52;5.35;;;;;;;;;;4911409;29;20522;-78
2022/10/28 00:17:44;;;;;;;9.90;5.82;;;;;;;;;;4930475;29;20024;-78
2022/10/28 00:20:10;;;;;;;11.15;5.47;;;;;;;;;;4931405;29;20035;-78
2022/10/28 00:22:35;;;;;;;10.02;5.50;;;;;;;;;;4910793;29;20024;-77
2022/10/28 00:25:00;;;;;;;9.00;5.30;;;;;;;;;;4930398;29;20048;-78
2022/10/28 00:27:26;;;;;;;9.45;5.22;;;;;;;;;;4925720;29;20044;-77
2022/10/28 00:29:51;;;;;;;7.97;5.00;;;;;;;;;;4928226;29;20032;-78
2022/10/28 00:32:17;;;;;;;9.07;4.97;;;;;;;;;;4926941;29;20096;-77
2022/10/28 00:34:42;;;;;;;8.30;4.75;;;;;;;;;;4906035;29;20503;-78
2022/10/28 00:37:07;;;;;;;8.48;5.13;;;;;;;;;;4913553;29;20027;-78
2022/10/28 00:39:33;;;;;;;10.18;5.25;;;;;;;;;;4927869;29;20032;-78
2022/10/28 00:42:02;;;;;;;9.95;5.28;;;;;;;;;;4927010;29;20031;-78
2022/10/28 00:44:57;;;;;;;12.90;5.00;;;;;;;;;;4926763;29;20079;-78
2022/10/28 00:47:25;;;;;;;7.05;5.00;;;;;;;;;;4929622;29;20481;-78
2022/10/28 00:49:56;;;;;;;10.13;4.80;;;;;;;;;;4933541;29;20113;-78
2022/10/28 00:52:25;;;;;;;8.02;5.10;;;;;;;;;;4927617;29;20050;-78
2022/10/28 00:54:51;;;;;;;10.18;4.90;;;;;;;;;;4930676;29;20024;-78
2022/10/28 00:57:23;;;;;;;11.55;5.05;;;;;;;;;;4929925;29;20019;-77
2022/10/28 00:59:52;;;;;;;9.98;5.40;;;;;;;;;;4927724;29;20388;-78
2022/10/28 01:02:18;;;;;;;9.90;4.85;;;;;;;;;;4913125;29;20392;-78
2022/10/28 01:04:45;;;;;;;9.73;4.97;;;;;;;;;;4932178;29;20031;-77
2022/10/28 01:07:10;;;;;;;11.27;5.30;;;;;;;;;;4928889;29;20031;-77
2022/10/28 01:09:38;;;;;;;10.00;5.03;;;;;;;;;;4914463;29;20396;-77
2022/10/28 01:12:18;;;;;;;11.65;5.03;;;;;;;;;;4928785;29;20059;-77
2022/10/28 01:14:43;;;;;;;9.93;4.88;;;;;;;;;;4926590;29;20039;-77
2022/10/28 01:17:47;;;;;;;8.35;4.80;;;;;;;;;;4925935;29;20088;-77
2022/10/28 01:20:33;;;;;;;11.40;4.93;;;;;;;;;;4926314;29;20114;-78
2022/10/28 01:23:10;;;;;;;7.65;4.75;;;;;;;;;;4923191;29;20046;-77
2022/10/28 01:25:53;;;;;;;10.13;5.25;;;;;;;;;;4930040;29;20059;-77
2022/10/28 01:28:54;;;;;;;11.18;4.88;;;;;;;;;;4925199;29;20067;-78
2022/10/28 01:31:40;;;;;;;9.05;4.53;;;;;;;;;;4910294;29;20030;-77
2022/10/28 01:34:27;;;;;;;10.55;4.95;;;;;;;;;;4929045;29;20118;-78
2022/10/28 01:37:05;;;;;;;9.18;4.75;;;;;;;;;;4925664;29;20563;-78
2022/10/28 01:39:41;;;;;;;10.45;4.82;;;;;;;;;;4925408;29;20028;-78
2022/10/28 01:42:30;;;;;;;11.48;5.30;;;;;;;;;;4923644;29;20031;-78
2022/10/28 01:45:01;;;;;;;12.63;5.13;;;;;;;;;;4928478;29;20024;-78
2022/10/28 01:47:43;;;;;;;9.50;5.03;;;;;;;;;;4930203;29;20081;-78
2022/10/28 01:50:21;;;;;;;10.00;5.10;;;;;;;;;;4931021;29;20074;-78
2022/10/28 01:52:50;;;;;;;15.10;5.57;;;;;;;;;;4926938;29;20282;-77
2022/10/28 01:55:24;;;;;;;12.10;5.18;;;;;;;;;;4913280;29;20027;-77
2022/10/28 01:57:51;;;;;;;9.85;5.30;;;;;;;;;;4932150;29;20031;-78
2022/10/28 02:00:16;;;;;;;9.85;5.15;;;;;;;;;;4909714;29;20027;-77
2022/10/28 02:02:43;;;;;;;9.57;5.15;;;;;;;;;;4912639;29;20035;-77
2022/10/28 02:05:33;;;;;;;9.70;5.18;;;;;;;;;;4927170;29;20020;-78
2022/10/28 02:08:09;;;;;;;12.85;5.35;;;;;;;;;;4927360;29;20028;-77
2022/10/28 02:10:40;;;;;;;10.70;5.18;;;;;;;;;;4927682;29;20499;-78
2022/10/28 02:13:11;;;;;;;7.68;4.85;;;;;;;;;;4924202;29;20089;-78
2022/10/28 02:15:48;;;;;;;8.43;5.20;;;;;;;;;;4927277;29;20098;-77
2022/10/28 02:19:07;;;;;;;10.50;5.78;;;;;;;;;;4925474;29;20031;-78
2022/10/28 02:21:44;;;;;;;9.20;5.43;;;;;;;;;;4928547;29;20102;-77
2022/10/28 02:24:15;;;;;;;10.90;5.30;;;;;;;;;;4928229;29;20036;-77
2022/10/28 02:26:46;;;;;;;12.48;5.70;;;;;;;;;;4923527;29;20052;-78
2022/10/28 02:29:19;;;;;;;11.80;5.15;;;;;;;;;;4931679;29;20031;-77
2022/10/28 02:31:58;;;;;;;10.85;5.13;;;;;;;;;;4925094;29;20498;-77
2022/10/28 02:34:35;;;;;;;10.07;5.05;;;;;;;;;;4912643;29;20511;-77
2022/10/28 02:37:05;;;;;;;10.63;5.28;;;;;;;;;;4924285;29;20032;-77
2022/10/28 02:39:37;;;;;;;12.68;5.13;;;;;;;;;;4928699;29;20031;-77
2022/10/28 02:42:24;;;;;;;11.40;4.80;;;;;;;;;;4926082;29;20449;-77
2022/10/28 02:44:56;;;;;;;9.77;4.57;;;;;;;;;;4929701;29;20504;-77
2022/10/28 02:47:27;;;;;;;8.90;4.33;;;;;;;;;;4929960;29;20401;-77
2022/10/28 02:49:58;;;;;;;7.68;4.32;;;;;;;;;;4915253;29;20027;-77
2022/10/28 02:52:26;;;;;;;8.85;4.82;;;;;;;;;;4917752;29;20082;-77
2022/10/28 02:54:55;;;;;;;8.35;5.00;;;;;;;;;;4935330;29;20030;-77
2022/10/28 02:57:24;;;;;;;14.40;4.60;;;;;;;;;;4928466;29;20620;-78
2022/10/28 02:59:59;;;;;;;10.93;4.82;;;;;;;;;;4931033;29;20031;-78
2022/10/28 03:02:25;;;;;;;10.77;4.55;;;;;;;;;;4929705;29;20399;-78
2022/10/28 03:04:50;;;;;;;7.47;4.13;;;;;;;;;;4934988;29;20024;-77
2022/10/28 03:07:15;;;;;;;10.73;4.15;;;;;;;;;;4928582;29;20122;-77
2022/10/28 03:09:41;;;;;;;8.20;4.50;;;;;;;;;;4935431;29;20379;-77
2022/10/28 03:12:06;;;;;;;9.25;4.55;;;;;;;;;;4913033;29;20059;-78
2022/10/28 03:14:32;;;;;;;9.27;4.45;;;;;;;;;;4932822;29;20043;-78
2022/10/28 03:16:57;;;;;;;6.63;4.03;;;;;;;;;;4931136;29;20020;-77
2022/10/28 03:19:23;;;;;;;9.07;4.22;;;;;;;;;;4931937;29;20392;-77
2022/10/28 03:21:49;;;;;;;10.05;4.40;;;;;;;;;;4918110;29;20392;-77
2022/10/28 03:24:14;;;;;;;9.10;4.55;;;;;;;;;;4933354;29;20114;-77
2022/10/28 03:26:40;;;;;;;7.95;4.22;;;;;;;;;;4927498;29;20048;-78
2022/10/28 03:29:05;;;;;;;11.55;4.13;;;;;;;;;;4925328;29;20062;-78
2022/10/28 03:31:30;;;;;;;7.78;3.97;;;;;;;;;;4915262;29;20033;-77
2022/10/28 03:33:56;;;;;;;8.68;4.10;;;;;;;;;;4917782;29;20039;-77
2022/10/28 03:36:21;;;;;;;7.75;3.70;;;;;;;;;;4926444;29;20111;-78
2022/10/28 03:38:47;;;;;;;7.68;3.85;;;;;;;;;;4923586;29;20020;-78
2022/10/28 03:41:12;;;;;;;11.32;3.83;;;;;;;;;;4916187;29;20535;-77
2022/10/28 03:43:37;;;;;;;9.20;3.63;;;;;;;;;;4916510;29;20396;-77
2022/10/28 03:46:03;;;;;;;10.30;4.25;;;;;;;;;;4928759;29;20024;-77
2022/10/28 03:48:28;;;;;;;7.40;3.83;;;;;;;;;;4928819;29;20433;-77
2022/10/28 03:50:54;;;;;;;7.30;3.97;;;;;;;;;;4915787;29;20396;-77
2022/10/28 03:53:20;;;;;;;7.68;4.20;;;;;;;;;;4914805;29;20396;-77
2022/10/28 03:55:55;;;;;;;6.97;3.60;;;;;;;;;;4929652;29;20027;-77
2022/10/28 03:58:21;;;;;;;11.70;4.20;;;;;;;;;;4932889;29;20038;-77
2022/10/28 04:00:48;;;;;;;7.22;3.85;;;;;;;;;;4931931;29;20027;-77
2022/10/28 04:03:14;;;;;;;11.02;4.75;;;;;;;;;;4930067;29;20031;-77
2022/10/28 04:05:40;;;;;;;10.63;3.88;;;;;;;;;;4932464;29;20027;-77
2022/10/28 04:08:05;;;;;;;12.13;4.20;;;;;;;;;;4909179;29;20028;-78
2022/10/28 04:10:31;;;;;;;12.10;4.40;;;;;;;;;;4928186;29;20043;-77
2022/10/28 04:13:00;;;;;;;7.88;4.18;;;;;;;;;;4914877;29;20032;-78
2022/10/28 04:15:26;;;;;;;8.10;4.25;;;;;;;;;;4913499;29;20039;-78
2022/10/28 04:17:51;;;;;;;11.93;3.92;;;;;;;;;;4928144;29;20396;-78
2022/10/28 04:20:16;;;;;;;7.93;3.97;;;;;;;;;;4930215;29;20126;-78
2022/10/28 04:22:42;;;;;;;11.85;4.60;;;;;;;;;;4905456;29;20043;-77
2022/10/28 04:25:07;;;;;;;10.73;3.80;;;;;;;;;;4913831;29;20449;-77
2022/10/28 04:27:33;;;;;;;8.68;4.35;;;;;;;;;;4927207;29;20036;-77
2022/10/28 04:29:58;;;;;;;9.07;3.85;;;;;;;;;;4911177;29;20448;-78
2022/10/28 04:32:23;;;;;;;10.48;4.18;;;;;;;;;;4925324;29;20024;-78
2022/10/28 04:34:49;;;;;;;7.82;3.90;;;;;;;;;;4905228;29;20866;-77
2022/10/28 04:37:14;;;;;;;9.38;4.07;;;;;;;;;;4915486;29;20119;-77
2022/10/28 04:39:39;;;;;;;10.30;4.05;;;;;;;;;;4914556;29;20031;-77
2022/10/28 04:42:05;;;;;;;11.15;3.95;;;;;;;;;;4928300;29;20110;-77
2022/10/28 04:44:30;;;;;;;12.45;4.20;;;;;;;;;;4930775;29;20047;-77
2022/10/28 04:46:55;;;;;;;13.65;4.18;;;;;;;;;;4909804;29;20388;-77
2022/10/28 04:49:21;;;;;;;8.93;4.07;;;;;;;;;;4913240;29;20039;-77
2022/10/28 04:51:46;;;;;;;8.23;3.92;;;;;;;;;;4931768;29;20023;-77
2022/10/28 04:54:12;;;;;;;10.95;3.92;;;;;;;;;;4928809;29;20097;-77
2022/10/28 04:56:37;;;;;;;9.30;4.10;;;;;;;;;;4922492;29;20148;-77
2022/10/28 04:59:02;;;;;;;12.55;4.35;;;;;;;;;;4923625;29;20059;-78
2022/10/28 05:01:28;;;;;;;8.13;3.92;;;;;;;;;;4907744;29;20028;-77
2022/10/28 05:03:53;;;;;;;8.20;3.47;;;;;;;;;;4918596;29;20028;-77
2022/10/28 05:06:18;;;;;;;8.05;3.65;;;;;;;;;;4911511;29;20054;-77
2022/10/28 05:08:44;;;;;;;9.27;4.13;;;;;;;;;;4929475;29;20066;-77
2022/10/28 05:11:09;;;;;;;7.88;3.83;;;;;;;;;;4930803;29;20158;-77
2022/10/28 05:13:35;;;;;;;9.75;3.85;;;;;;;;;;4906605;29;20035;-77
2022/10/28 05:16:00;;;;;;;8.73;3.78;;;;;;;;;;4931947;29;20036;-78
2022/10/28 05:18:25;;;;;;;14.95;3.78;;;;;;;;;;4916639;29;20024;-77
2022/10/28 05:20:53;;;;;;;8.80;3.70;;;;;;;;;;4914999;29;20023;-77
2022/10/28 05:23:20;;;;;;;9.73;4.13;;;;;;;;;;4926036;29;20787;-77
2022/10/28 05:25:45;;;;;;;10.35;3.85;;;;;;;;;;4922361;29;20493;-77
2022/10/28 05:28:11;;;;;;;7.40;3.38;;;;;;;;;;4913992;29;20028;-77
2022/10/28 05:30:36;;;;;;;8.73;4.00;;;;;;;;;;4921956;29;20031;-77
2022/10/28 05:33:03;;;;;;;8.60;3.60;;;;;;;;;;4913286;29;20070;-77
2022/10/28 05:35:29;;;;;;;9.63;4.80;;;;;;;;;;4912109;29;20392;-77
2022/10/28 05:37:56;;;;;;;9.50;3.70;;;;;;;;;;4931201;29;20032;-77
2022/10/28 05:40:21;;;;;;;7.13;3.58;;;;;;;;;;4924244;29;20373;-77
2022/10/28 05:42:47;;;;;;;8.90;3.45;;;;;;;;;;4912167;29;20038;-78
2022/10/28 05:45:12;;;;;;;8.82;3.60;;;;;;;;;;4930476;29;20146;-77
2022/10/28 05:47:42;;;;;;;7.90;3.72;;;;;;;;;;4928849;29;20042;-77
2022/10/28 05:50:08;;;;;;;8.80;3.97;;;;;;;;;;4927639;29;20038;-77
2022/10/28 05:52:33;;;;;;;8.85;4.07;;;;;;;;;;4915491;29;20035;-77
2022/10/28 05:54:58;;;;;;;12.27;3.65;;;;;;;;;;4914069;29;20046;-77
2022/10/28 05:57:24;;;;;;;8.40;3.42;;;;;;;;;;4926353;29;20032;-77
2022/10/28 05:59:49;;;;;;;9.20;3.70;;;;;;;;;;4926750;29;20039;-77
2022/10/28 06:02:15;;;;;;;8.30;4.00;;;;;;;;;;4926230;29;20032;-77
2022/10/28 06:04:41;;;;;;;11.25;3.60;;;;;;;;;;4906457;29;20131;-77
2022/10/28 06:07:06;;;;;;;11.40;4.00;;;;;;;;;;4920826;29;20493;-77
2022/10/28 06:09:32;;;;;;;9.73;3.80;;;;;;;;;;4922597;29;20051;-78
2022/10/28 06:11:57;;;;;;;12.63;3.88;;;;;;;;;;4925620;29;20068;-77
2022/10/28 06:14:22;;;;;;;9.25;3.60;;;;;;;;;;4911300;29;20031;-77
2022/10/28 06:16:48;;;;;;;11.82;3.78;;;;;;;;;;4925462;29;20040;-77
2022/10/28 06:19:13;;;;;;;6.80;3.40;;;;;;;;;;4916024;29;20031;-77
2022/10/28 06:21:38;;;;;;;9.70;4.22;;;;;;;;;;4930263;29;20160;-77
2022/10/28 06:24:04;;;;;;;10.18;4.05;;;;;;;;;;4932844;29;20031;-77
2022/10/28 06:26:30;;;;;;;9.52;4.10;;;;;;;;;;4933857;29;20051;-77
2022/10/28 06:28:55;;;;;;;8.73;3.58;;;;;;;;;;4930244;29;20374;-77
2022/10/28 06:31:20;;;;;;;10.25;3.95;;;;;;;;;;4917942;29;20130;-77
2022/10/28 06:33:46;;;;;;;10.07;4.18;;;;;;;;;;4933071;29;20040;-77
2022/10/28 06:36:11;;;;;;;12.98;4.07;;;;;;;;;;4914989;29;20043;-77
2022/10/28 06:38:36;;;;;;;9.95;4.22;;;;;;;;;;4916497;29;20023;-77
2022/10/28 06:41:02;;;;;;;14.27;4.28;;;;;;;;;;4933894;29;20504;-77
2022/10/28 06:43:27;;;;;;;10.13;4.00;;;;;;;;;;4912931;29;20050;-77
2022/10/28 06:45:55;;;;;;;10.43;4.40;;;;;;;;;;4917745;29;20396;-77
2022/10/28 06:48:21;;;;;;;14.88;4.80;;;;;;;;;;4931936;29;20028;-77
2022/10/28 06:50:47;;;;;;;7.82;4.03;;;;;;;;;;4916145;29;20039;-77
2022/10/28 06:53:12;;;;;;;7.95;3.85;;;;;;;;;;4924607;29;20024;-77
2022/10/28 06:55:37;;;;;;;11.40;4.03;;;;;;;;;;4929172;29;20480;-77
2022/10/28 06:58:03;;;;;;;11.88;3.85;;;;;;;;;;4916278;29;20039;-77
2022/10/28 07:00:30;;;;;;;6.95;3.97;;;;;;;;;;4911025;29;20023;-77
2022/10/28 07:02:55;;;;;;;10.02;4.00;;;;;;;;;;4926169;29;20027;-77
2022/10/28 07:05:22;;;;;;;8.48;4.13;;;;;;;;;;4915395;29;20392;-77
2022/10/28 07:07:48;;;;;;;9.73;3.78;;;;;;;;;;4933119;29;20091;-77
2022/10/28 07:10:14;;;;;;;11.13;4.20;;;;;;;;;;4925641;29;20428;-77
2022/10/28 07:12:39;;;;;;;10.52;3.90;;;;;;;;;;4928400;29;20032;-77
2022/10/28 07:15:05;;;;;;;11.05;4.40;;;;;;;;;;4930027;29;20410;-77
2022/10/28 07:17:30;;;;;;;11.77;4.72;;;;;;;;;;4917427;29;20028;-77
2022/10/28 07:19:56;;;;;;;10.00;4.30;;;;;;;;;;4929682;29;20032;-77
2022/10/28 07:22:21;;;;;;;8.75;3.92;;;;;;;;;;4914008;29;20036;-77
2022/10/28 07:24:46;;;;;;;9.27;3.88;;;;;;;;;;4909871;29;20059;-77
2022/10/28 07:27:12;;;;;;;9.93;4.20;;;;;;;;;;4934430;29;20047;-77
2022/10/28 07:29:37;;;;;;;12.90;4.50;;;;;;;;;;4930268;29;20059;-77
2022/10/28 07:32:03;;;;;;;14.15;4.45;;;;;;;;;;4932077;29;20123;-77
2022/10/28 07:34:28;;;;;;;12.73;4.28;;;;;;;;;;4932178;29;20027;-77
2022/10/28 07:36:54;;;;;;;10.60;4.07;;;;;;;;;;4932269;29;20031;-77
2022/10/28 07:39:20;;;;;;;9.98;4.10;;;;;;;;;;4914609;29;20031;-76
2022/10/28 07:41:46;;;;;;;10.07;4.18;;;;;;;;;;4931517;29;20032;-76
2022/10/28 07:44:12;;;;;;;11.38;4.63;;;;;;;;;;4932015;29;20509;-76
2022/10/28 07:46:37;;;;;;;15.88;5.40;;;;;;;;;;4933502;29;20023;-77
2022/10/28 07:49:03;;;;;;;9.68;5.05;;;;;;;;;;4931024;29;20030;-76
2022/10/28 07:51:28;;;;;;;13.95;4.60;;;;;;;;;;4931964;29;20031;-77
2022/10/28 07:53:55;;;;;;;11.63;4.90;;;;;;;;;;4915450;29;20437;-77
2022/10/28 07:56:21;;;;;;;11.75;5.13;;;;;;;;;;4924316;29;20051;-76
2022/10/28 07:58:46;;;;;;;10.52;4.75;;;;;;;;;;4928732;29;20059;-77
2022/10/28 08:01:15;;;;;;;10.77;5.60;;;;;;;;;;4927343;29;20110;-77
2022/10/28 08:03:40;;;;;;;14.40;5.80;;;;;;;;;;4935555;29;20030;-76
2022/10/28 08:06:11;;;;;;;7.45;4.70;;;;;;;;;;4913708;29;20031;-76
2022/10/28 08:08:37;;;;;;;12.38;5.07;;;;;;;;;;4931373;29;20107;-77
2022/10/28 08:11:14;;;;;;;9.88;4.35;;;;;;;;;;4927109;29;20027;-76
2022/10/28 08:13:40;;;;;;;10.00;4.75;;;;;;;;;;4930579;29;20674;-76
2022/10/28 08:16:07;;;;;;;12.90;4.80;;;;;;;;;;4930707;29;20439;-76
2022/10/28 08:18:33;;;;;;;12.10;4.93;;;;;;;;;;4931637;29;20024;-77
2022/10/28 08:21:00;;;;;;;10.27;4.15;;;;;;;;;;4932954;29;20450;-77
2022/10/28 08:23:26;;;;;;;13.73;4.80;;;;;;;;;;4931347;29;20062;-76
2022/10/28 08:25:52;;;;;;;12.25;5.00;;;;;;;;;;4932258;29;20082;-77
2022/10/28 08:28:18;;;;;;;10.70;4.88;;;;;;;;;;4932739;29;20047;-76
2022/10/28 08:30:44;;;;;;;9.25;4.75;;;;;;;;;;4929326;29;20488;-77
2022/10/28 08:33:09;;;;;;;10.25;4.30;;;;;;;;;;4933102;29;20777;-77
2022/10/28 08:35:34;;;;;;;11.10;4.95;;;;;;;;;;4926537;29;20040;-76
2022/10/28 08:38:00;;;;;;;12.90;5.03;;;;;;;;;;4918169;29;20040;-76
2022/10/28 08:41:01;;;;;;;10.65;4.57;;;;;;;;;;4929716;29;20416;-76
2022/10/28 08:43:42;;;;;;;12.65;4.93;;;;;;;;;;4914062;29;20074;-76
2022/10/28 08:46:14;;;;;;;18.65;4.95;;;;;;;;;;4928173;29;20365;-77
2022/10/28 08:48:41;;;;;;;13.77;4.80;;;;;;;;;;4927497;29;20094;-76
2022/10/28 08:51:15;;;;;;;10.95;4.30;;;;;;;;;;4929893;29;20417;-77
2022/10/28 08:53:47;;;;;;;9.82;4.85;;;;;;;;;;4917344;29;20031;-76
2022/10/28 08:56:20;;;;;;;12.68;4.53;;;;;;;;;;4929148;29;20074;-77
2022/10/28 08:58:46;;;;;;;9.65;4.43;;;;;;;;;;4912506;29;20036;-77
2022/10/28 09:01:19;;;;;;;8.30;4.70;;;;;;;;;;4927871;29;20460;-76
2022/10/28 09:03:48;;;;;;;11.80;4.63;;;;;;;;;;4915642;29;20392;-76
2022/10/28 09:06:14;;;;;;;11.90;4.18;;;;;;;;;;4916017;29;20027;-77
2022/10/28 09:08:43;;;;;;;10.00;4.35;;;;;;;;;;4931123;29;20596;-77
2022/10/28 09:11:09;;;;;;;13.23;5.05;;;;;;;;;;4918788;29;20043;-77
2022/10/28 09:14:05;;;;;;;10.82;4.35;;;;;;;;;;4925485;29;20143;-76
2022/10/28 09:16:45;;;;;;;10.35;4.60;;;;;;;;;;4924240;29;20134;-77
2022/10/28 09:19:32;;;;;;;10.02;4.57;;;;;;;;;;4927259;29;20024;-77
2022/10/28 09:22:15;;;;;;;12.02;5.00;;;;;;;;;;4925122;29;20373;-77
2022/10/28 09:24:51;;;;;;;14.75;5.07;;;;;;;;;;4926490;29;20023;-76
2022/10/28 09:27:54;;;;;;;7.80;4.10;;;;;;;;;;4914190;29;20039;-77
2022/10/28 09:30:31;;;;;;;16.35;4.78;;;;;;;;;;4917226;29;20095;-77
2022/10/28 09:33:07;;;;;;;13.75;4.97;;;;;;;;;;4922223;29;20042;-77
2022/10/28 09:35:42;;;;;;;11.85;4.30;;;;;;;;;;4910215;29;20516;-77
2022/10/28 09:38:31;;;;;;;12.55;4.68;;;;;;;;;;4921025;29;20131;-77
2022/10/28 09:41:03;;;;;;;14.88;4.80;;;;;;;;;;4924072;29;20198;-77
2022/10/28 09:43:44;;;;;;;12.00;4.90;;;;;;;;;;4909485;29;20516;-77
2022/10/28 09:46:12;;;;;;;13.95;4.55;;;;;;;;;;4917658;29;20485;-76
2022/10/28 09:48:43;;;;;;;12.55;5.07;;;;;;;;;;4921277;29;20031;-77
2022/10/28 09:51:42;;;;;;;11.20;4.35;;;;;;;;;;4915079;29;20316;-77
2022/10/28 09:54:09;;;;;;;13.00;4.90;;;;;;;;;;4920949;29;20023;-77
2022/10/28 09:56:36;;;;;;;9.40;4.47;;;;;;;;;;4910726;29;20106;-77
2022/10/28 09:59:02;;;;;;;10.80;4.38;;;;;;;;;;4903860;29;20035;-76
2022/10/28 10:01:33;;;;;;;12.57;4.72;;;;;;;;;;4921289;29;20031;-77
2022/10/28 10:04:00;;;;;;;9.88;4.43;;;;;;;;;;4911249;29;20035;-77
2022/10/28 10:06:36;;;;;;;8.57;3.50;;;;;;;;;;4901854;29;20031;-77
2022/10/28 10:09:02;;;;;;;8.52;3.70;;;;;;;;;;4914644;29;20127;-77
2022/10/28 10:11:55;;;;;;;9.75;4.30;;;;;;;;;;4909185;29;20024;-77
2022/10/28 10:14:29;;;;;;;12.02;4.68;;;;;;;;;;4902415;29;20043;-77
2022/10/28 10:17:04;;;;;;;10.73;4.47;;;;;;;;;;4917555;29;20048;-77
2022/10/28 10:20:15;;;;;;;10.63;4.32;;;;;;;;;;4898714;29;20350;-77
2022/10/28 10:22:43;;;;;;;11.82;4.00;;;;;;;;;;4921253;29;20114;-76
2022/10/28 10:25:17;;;;;;;11.68;4.13;;;;;;;;;;4916724;29;20044;-77
2022/10/28 10:28:12;;;;;;;10.85;4.47;;;;;;;;;;4922722;29;20024;-77
2022/10/28 10:30:44;;;;;;;9.20;3.95;;;;;;;;;;4918089;29;20156;-77
2022/10/28 10:33:23;;;;;;;8.47;3.80;;;;;;;;;;4905634;29;21775;-77
2022/10/28 10:35:55;;;;;;;10.77;3.88;;;;;;;;;;4922707;29;20039;-77
2022/10/28 10:38:20;;;;;;;12.45;4.53;;;;;;;;;;4928590;29;20034;-77
2022/10/28 10:40:51;;;;;;;11.07;3.92;;;;;;;;;;4910264;29;20031;-77
2022/10/28 10:43:16;;;;;;;9.90;3.80;;;;;;;;;;4929057;29;20051;-77
2022/10/28 10:45:50;;;;;;;9.57;4.07;;;;;;;;;;4927040;29;20062;-77
2022/10/28 10:48:17;;;;;;;9.00;3.67;;;;;;;;;;4930421;29;20776;-77
2022/10/28 10:50:45;;;;;;;9.05;3.75;;;;;;;;;;4928931;29;20040;-77
2022/10/28 10:53:26;;;;;;;10.05;4.03;;;;;;;;;;4925991;29;20061;-77
2022/10/28 10:56:00;;;;;;;11.73;3.70;;;;;;;;;;4924683;29;20028;-77
2022/10/28 10:58:33;;;;;;;8.32;3.33;;;;;;;;;;4910958;29;20036;-77
2022/10/28 11:01:02;;;;;;;18.30;4.07;;;;;;;;;;4931326;29;20027;-77
2022/10/28 11:03:37;;;;;;;10.45;3.55;;;;;;;;;;4917019;29;20051;-77
2022/10/28 11:06:06;;;;;;;7.90;3.40;;;;;;;;;;4922458;29;20028;-77
2022/10/28 11:08:38;;;;;;;10.98;3.58;;;;;;;;;;4920337;29;20051;-77
2022/10/28 11:11:19;;;;;;;12.50;3.75;;;;;;;;;;4927447;29;20078;-77
2022/10/28 11:13:45;;;;;;;9.32;3.35;;;;;;;;;;4929305;29;20500;-77
2022/10/28 11:16:22;;;;;;;12.25;3.65;;;;;;;;;;4929854;29;20046;-77
2022/10/28 11:18:51;;;;;;;8.38;3.30;;;;;;;;;;4932423;29;20059;-77
2022/10/28 11:21:42;;;;;;;9.40;3.20;;;;;;;;;;4920784;29;20074;-76
2022/10/28 11:24:28;;;;;;;11.57;3.85;;;;;;;;;;4933645;29;20088;-77
2022/10/28 11:27:31;;;;;;;8.50;3.25;;;;;;;;;;4931233;29;20123;-77
2022/10/28 11:29:59;;;;;;;9.35;2.88;;;;;;;;;;4931816;29;20543;-77
2022/10/28 11:33:08;;;;;;;10.18;3.60;;;;;;;;;;4918094;29;20035;-77
2022/10/28 11:35:40;;;;;;;10.13;3.83;;;;;;;;;;4917052;29;20047;-77
2022/10/28 11:38:11;;;;;;;9.97;2.93;;;;;;;;;;4925936;29;20035;-77
2022/10/28 11:41:08;;;;;;;12.27;4.20;;;;;;;;;;4929417;29;20039;-77
2022/10/28 11:43:44;;;;;;;8.85;3.25;;;;;;;;;;4933521;29;20083;-77
2022/10/28 11:46:28;;;;;;;12.40;3.58;;;;;;;;;;4936572;29;20421;-77
2022/10/28 11:49:23;;;;;;;8.93;3.35;;;;;;;;;;4932985;29;20083;-77
2022/10/28 11:51:54;;;;;;;9.30;2.90;;;;;;;;;;4917601;29;20055;-77
2022/10/28 11:54:44;;;;;;;9.80;3.17;;;;;;;;;;4927025;29;20451;-77
2022/10/28 11:57:22;;;;;;;10.48;3.75;;;;;;;;;;4925234;29;20032;-77
2022/10/28 12:00:18;;;;;;;10.20;2.83;;;;;;;;;;4926879;29;20392;-77
2022/10/28 12:03:02;;;;;;;8.35;3.20;;;;;;;;;;4928964;29;20028;-77
2022/10/28 12:05:43;;;;;;;12.02;3.97;;;;;;;;;;4930547;29;20024;-77
2022/10/28 12:08:24;;;;;;;10.35;3.75;;;;;;;;;;4934534;29;20544;-77
2022/10/28 12:11:13;;;;;;;11.85;3.40;;;;;;;;;;4926704;29;20044;-77
2022/10/28 12:13:41;;;;;;;8.68;3.15;;;;;;;;;;4933268;29;20031;-77
2022/10/28 12:16:37;;;;;;;8.35;3.35;;;;;;;;;;4924942;29;20055;-78
2022/10/28 12:19:11;;;;;;;9.48;2.83;;;;;;;;;;4930339;29;20035;-77
2022/10/28 12:21:44;;;;;;;9.80;3.67;;;;;;;;;;4928610;29;20039;-77
2022/10/28 12:24:20;;;;;;;12.60;3.78;;;;;;;;;;4914922;29;20035;-77
2022/10/28 12:26:58;;;;;;;10.38;3.10;;;;;;;;;;4907478;29;20587;-77
2022/10/28 12:29:36;;;;;;;9.10;4.00;;;;;;;;;;4921134;29;20059;-77
2022/10/28 12:32:17;;;;;;;10.63;3.25;;;;;;;;;;4910768;29;20024;-77
2022/10/28 12:34:47;;;;;;;9.10;3.25;;;;;;;;;;4928134;29;20114;-77
2022/10/28 12:37:21;;;;;;;8.90;2.92;;;;;;;;;;4911290;29;20486;-77
2022/10/28 12:40:00;;;;;;;11.88;4.00;;;;;;;;;;4913691;29;20066;-77
2022/10/28 12:42:43;;;;;;;11.18;2.88;;;;;;;;;;4922336;29;20396;-77
2022/10/28 12:45:15;;;;;;;10.27;3.00;;;;;;;;;;4927241;29;20031;-77
2022/10/28 12:47:45;;;;;;;6.28;2.90;;;;;;;;;;4925068;29;20036;-77
2022/10/28 12:50:23;;;;;;;7.57;2.60;;;;;;;;;;4927730;29;20028;-77
2022/10/28 12:53:01;;;;;;;8.05;3.28;;;;;;;;;;4924723;29;20058;-77
2022/10/28 12:55:41;;;;;;;10.02;3.20;;;;;;;;;;4934215;29;20055;-77
2022/10/28 12:58:33;;;;;;;10.23;3.15;;;;;;;;;;4934325;29;20035;-77
2022/10/28 13:01:11;;;;;;;10.95;3.38;;;;;;;;;;4909650;29;20508;-77
2022/10/28 13:03:36;;;;;;;9.00;2.67;;;;;;;;;;4933904;29;20383;-77
2022/10/28 13:06:23;;;;;;;10.15;3.28;;;;;;;;;;4929788;29;20027;-77
2022/10/28 13:09:07;;;;;;;8.48;3.33;;;;;;;;;;4926345;29;20038;-77
2022/10/28 13:11:52;;;;;;;11.95;3.35;;;;;;;;;;4917240;29;20449;-77
2022/10/28 13:14:34;;;;;;;14.05;3.50;;;;;;;;;;4933532;29;20067;-77
2022/10/28 13:17:22;;;;;;;12.20;3.28;;;;;;;;;;4929968;29;20050;-77
2022/10/28 13:20:05;;;;;;;8.13;3.20;;;;;;;;;;4932408;29;20054;-77
2022/10/28 13:23:06;;;;;;;10.45;3.38;;;;;;;;;;4926388;29;20055;-77
2022/10/28 13:25:58;;;;;;;11.57;3.72;;;;;;;;;;4917640;29;20040;-77
2022/10/28 13:28:29;;;;;;;13.82;3.50;;;;;;;;;;4914135;29;20408;-77
2022/10/28 13:30:57;;;;;;;15.77;3.72;;;;;;;;;;4932583;29;20119;-77
2022/10/28 13:33:25;;;;;;;11.57;3.10;;;;;;;;;;4928799;29;20032;-77
2022/10/28 13:35:53;;;;;;;13.80;3.42;;;;;;;;;;4917553;29;20400;-77
2022/10/28 13:38:23;;;;;;;14.80;3.80;;;;;;;;;;4927797;29;20027;-77
2022/10/28 13:41:10;;;;;;;11.02;3.78;;;;;;;;;;4922798;29;20655;-77
2022/10/28 13:43:48;;;;;;;13.55;3.38;;;;;;;;;;4919233;29;20036;-77
2022/10/28 13:46:51;;;;;;;10.50;3.22;;;;;;;;;;4923152;29;20028;-77
2022/10/28 13:49:27;;;;;;;;;;;;;;;;;;4926776;29;20107;-77
2022/10/28 13:52:19;;;;;;;14.05;3.35;;;;;;;;;;4927779;29;19943;-77
2022/10/28 13:54:44;;;;;;;12.48;3.78;;;;;;;;;;4925814;29;20689;-77
2022/10/28 13:57:24;;;;;;;11.65;3.67;;;;;;;;;;4910440;29;20452;-77
2022/10/28 13:59:55;;;;;;;7.60;3.42;;;;;;;;;;4927265;29;20480;-77
2022/10/28 14:02:43;;;;;;;10.65;3.38;;;;;;;;;;4924781;29;20036;-77
2022/10/28 14:05:11;;;;;;;11.00;3.47;;;;;;;;;;4912394;29;20044;-77
2022/10/28 14:07:49;;;;;;;9.70;3.15;;;;;;;;;;4914893;29;20447;-77
2022/10/28 14:10:30;;;;;;;11.93;3.33;;;;;;;;;;4924676;29;20448;-77
2022/10/28 14:13:19;;;;;;;8.40;3.03;;;;;;;;;;4912206;29;20031;-77
2022/10/28 14:15:46;;;;;;;10.52;3.80;;;;;;;;;;4925476;29;20074;-77
2022/10/28 14:18:12;;;;;;;8.98;3.17;;;;;;;;;;4916656;29;20103;-77
2022/10/28 14:20:53;;;;;;;11.85;3.38;;;;;;;;;;4928818;29;20118;-77
2022/10/28 14:23:19;;;;;;;9.63;3.33;;;;;;;;;;4913134;29;20058;-77
2022/10/28 14:25:50;;;;;;;9.20;3.47;;;;;;;;;;4919232;29;20039;-77
2022/10/28 14:28:28;;;;;;;12.07;4.03;;;;;;;;;;4923429;29;20081;-77
2022/10/28 14:31:13;;;;;;;10.02;3.80;;;;;;;;;;4917631;29;20031;-77
2022/10/28 14:33:42;;;;;;;9.13;3.22;;;;;;;;;;4923325;29;20079;-77
2022/10/28 14:36:16;;;;;;;10.63;3.20;;;;;;;;;;4924954;29;20079;-77
2022/10/28 14:39:10;;;;;;;9.50;3.35;;;;;;;;;;4925289;29;20456;-77
2022/10/28 14:41:54;;;;;;;11.18;3.47;;;;;;;;;;4926392;29;20032;-77
2022/10/28 14:44:57;;;;;;;9.30;3.30;;;;;;;;;;4925730;29;20040;-77
2022/10/28 14:47:29;;;;;;;8.50;3.42;;;;;;;;;;4931264;29;20031;-77
2022/10/28 14:50:00;;;;;;;7.88;3.47;;;;;;;;;;4925435;29;20088;-77
2022/10/28 14:52:29;;;;;;;11.43;3.40;;;;;;;;;;4925353;29;20090;-77
2022/10/28 14:54:58;;;;;;;10.40;3.47;;;;;;;;;;4920687;29;20122;-77
2022/10/28 14:57:31;;;;;;;10.20;4.13;;;;;;;;;;4930084;29;20035;-78
2022/10/28 15:00:02;;;;;;;9.00;3.67;;;;;;;;;;4931042;29;20547;-77
2022/10/28 15:02:28;;;;;;;8.40;3.88;;;;;;;;;;4910112;29;20480;-77
2022/10/28 15:05:16;;;;;;;8.98;3.80;;;;;;;;;;4926986;29;20040;-77